createdAt,value
2023-05-15T00:02:17.295Z,12.30
2023-05-15T00:05:03.832Z,18.90
2023-05-15T00:07:49.997Z,12.38
2023-05-15T00:10:35.981Z,11.82
2023-05-15T00:13:22.027Z,11.43
2023-05-15T00:16:09.482Z,13.77
2023-05-15T00:18:55.639Z,13.27
2023-05-15T00:21:41.606Z,16.73
2023-05-15T00:24:30.686Z,8.57
2023-05-15T00:27:16.716Z,13.98
2023-05-15T00:30:02.447Z,11.23
2023-05-15T00:32:48.273Z,12.30
2023-05-15T00:35:36.626Z,13.98
2023-05-15T00:38:22.383Z,10.27
2023-05-15T00:41:10.394Z,12.85
2023-05-15T00:43:56.755Z,12.25
2023-05-15T00:46:43.393Z,13.35
2023-05-15T00:49:30.070Z,12.32
2023-05-15T00:52:15.939Z,9.98
2023-05-15T00:55:02.089Z,9.07
2023-05-15T00:57:48.198Z,11.90
2023-05-15T01:00:34.642Z,16.00
2023-05-15T01:03:21.659Z,8.23
2023-05-15T01:06:07.742Z,11.50
2023-05-15T01:08:55.224Z,8.30
2023-05-15T01:11:42.506Z,19.20
2023-05-15T01:14:29.073Z,11.88
2023-05-15T01:17:14.841Z,10.13
2023-05-15T01:20:01.625Z,17.70
2023-05-15T01:23:09.122Z,12.30
2023-05-15T01:26:13.334Z,11.45
2023-05-15T01:29:04.556Z,13.80
2023-05-15T01:31:57.011Z,14.38
2023-05-15T01:34:58.755Z,11.88
2023-05-15T01:37:46.416Z,20.63
2023-05-15T01:40:32.325Z,16.38
2023-05-15T01:43:21.213Z,10.80
2023-05-15T01:46:07.632Z,14.23
2023-05-15T01:48:55.071Z,8.55
2023-05-15T01:51:42.697Z,13.50
2023-05-15T01:54:29.864Z,18.33
2023-05-15T01:57:16.444Z,14.80
2023-05-15T02:00:03.511Z,12.07
2023-05-15T02:03:09.367Z,18.45
2023-05-15T02:05:56.731Z,13.40
2023-05-15T02:08:43.305Z,19.58
2023-05-15T02:11:29.637Z,13.90
2023-05-15T02:14:17.438Z,11.70
2023-05-15T02:17:03.458Z,11.40
2023-05-15T02:19:49.644Z,11.88
2023-05-15T02:22:36.269Z,16.20
2023-05-15T02:25:33.172Z,11.55
2023-05-15T02:28:32.691Z,15.60
2023-05-15T02:31:27.516Z,18.00
2023-05-15T02:34:30.415Z,19.48
2023-05-15T02:37:18.428Z,12.80
2023-05-15T02:40:07.157Z,11.98
2023-05-15T02:42:53.815Z,13.85
2023-05-15T02:45:41.163Z,13.70
2023-05-15T02:48:27.555Z,22.58
2023-05-15T02:51:14.220Z,12.35
2023-05-15T02:54:01.745Z,17.52
2023-05-15T02:56:47.936Z,17.10
2023-05-15T02:59:35.023Z,22.13
2023-05-15T03:02:20.861Z,24.05
2023-05-15T03:05:07.328Z,18.60
2023-05-15T03:07:53.139Z,17.15
2023-05-15T03:10:39.291Z,17.30
2023-05-15T03:13:25.055Z,16.00
2023-05-15T03:16:10.808Z,12.80
2023-05-15T03:18:56.918Z,14.70
2023-05-15T03:21:42.826Z,12.02
2023-05-15T03:24:28.472Z,18.98
2023-05-15T03:27:14.355Z,7.80
2023-05-15T03:30:00.566Z,10.98
2023-05-15T03:32:46.785Z,11.13
2023-05-15T03:35:32.992Z,13.60
2023-05-15T03:38:20.084Z,10.65
2023-05-15T03:41:06.162Z,18.17
2023-05-15T03:43:51.950Z,11.35
2023-05-15T03:46:37.666Z,10.43
2023-05-15T03:49:23.506Z,14.82
2023-05-15T03:52:09.929Z,13.35
2023-05-15T03:54:55.836Z,48.38
2023-05-15T03:57:41.984Z,33.00
2023-05-15T04:00:28.086Z,10.45
2023-05-15T04:03:14.138Z,13.20
2023-05-15T04:06:00.355Z,19.45
2023-05-15T04:08:46.291Z,18.30
2023-05-15T04:11:34.900Z,13.18
2023-05-15T04:14:21.003Z,14.40
2023-05-15T04:17:06.771Z,10.27
2023-05-15T04:19:52.545Z,13.73
2023-05-15T04:22:38.647Z,19.48
2023-05-15T04:25:24.803Z,18.88
2023-05-15T04:28:11.114Z,24.45
2023-05-15T04:30:58.676Z,26.65
2023-05-15T04:33:44.485Z,20.58
2023-05-15T04:36:30.315Z,18.88
2023-05-15T04:39:16.153Z,17.92
2023-05-15T04:42:02.475Z,14.68
2023-05-15T04:44:48.496Z,19.92
2023-05-15T04:47:34.332Z,17.48
2023-05-15T04:50:20.443Z,16.95
2023-05-15T04:53:06.588Z,14.30
2023-05-15T04:55:52.287Z,20.85
2023-05-15T04:58:38.467Z,14.95
2023-05-15T05:01:24.329Z,15.68
2023-05-15T05:04:10.361Z,17.48
2023-05-15T05:06:56.137Z,14.52
2023-05-15T05:09:42.264Z,15.25
2023-05-15T05:12:28.330Z,14.32
2023-05-15T05:15:14.534Z,18.23
2023-05-15T05:18:00.659Z,13.70
2023-05-15T05:20:47.025Z,13.82
2023-05-15T05:23:33.133Z,12.25
2023-05-15T05:26:18.869Z,17.83
2023-05-15T05:29:04.786Z,12.68
2023-05-15T05:31:51.477Z,13.95
2023-05-15T05:34:37.802Z,13.57
2023-05-15T05:37:24.903Z,13.90
2023-05-15T05:40:11.061Z,15.15
2023-05-15T05:43:03.741Z,17.13
2023-05-15T05:45:49.718Z,21.30
2023-05-15T05:48:36.648Z,12.13
2023-05-15T05:51:22.382Z,15.55
2023-05-15T05:54:08.128Z,15.75
2023-05-15T05:56:54.184Z,15.10
2023-05-15T05:59:40.050Z,14.70
2023-05-15T06:02:26.155Z,18.75
2023-05-15T06:05:12.230Z,19.50
2023-05-15T06:07:58.229Z,20.45
2023-05-15T06:10:44.953Z,22.10
2023-05-15T06:13:31.066Z,11.57
2023-05-15T06:16:16.807Z,17.58
2023-05-15T06:19:02.868Z,17.83
2023-05-15T06:21:48.725Z,15.40
2023-05-15T06:24:34.735Z,19.30
2023-05-15T06:27:21.101Z,19.40
2023-05-15T06:30:08.255Z,21.38
2023-05-15T06:32:55.820Z,16.60
2023-05-15T06:35:42.608Z,19.73
2023-05-15T06:38:28.638Z,19.10
2023-05-15T06:41:14.529Z,24.02
2023-05-15T06:44:00.579Z,18.10
2023-05-15T06:46:46.468Z,25.95
2023-05-15T06:49:32.417Z,27.15
2023-05-15T06:52:18.157Z,22.30
2023-05-15T06:55:04.125Z,29.20
2023-05-15T06:57:50.785Z,23.05
2023-05-15T07:00:36.628Z,28.05
2023-05-15T07:03:22.554Z,22.40
2023-05-15T07:06:08.416Z,18.45
2023-05-15T07:08:54.574Z,20.40
2023-05-15T07:11:42.241Z,17.98
2023-05-15T07:14:28.230Z,22.55
2023-05-15T07:17:14.020Z,22.02
2023-05-15T07:20:00.223Z,22.02
2023-05-15T07:22:55.620Z,37.25
2023-05-15T07:25:45.938Z,29.45
2023-05-15T07:28:32.292Z,23.23
2023-05-15T07:31:18.189Z,25.05
2023-05-15T07:34:04.049Z,27.73
2023-05-15T07:36:50.179Z,24.85
2023-05-15T07:39:36.004Z,23.25
2023-05-15T07:42:21.909Z,19.67
2023-05-15T07:45:08.432Z,25.88
2023-05-15T07:47:54.779Z,46.13
2023-05-15T07:50:40.992Z,40.33
2023-05-15T07:53:27.299Z,36.45
2023-05-15T07:56:13.253Z,21.17
2023-05-15T07:58:59.252Z,21.98
2023-05-15T08:01:45.261Z,19.00
2023-05-15T08:04:31.229Z,20.08
2023-05-15T08:07:17.328Z,20.65
2023-05-15T08:10:06.272Z,22.92
2023-05-15T08:12:52.456Z,36.13
2023-05-15T08:15:38.682Z,23.08
2023-05-15T08:18:24.576Z,22.58
2023-05-15T08:21:11.195Z,19.88
2023-05-15T08:23:57.428Z,14.88
2023-05-15T08:26:43.517Z,33.40
2023-05-15T08:29:29.582Z,44.67
2023-05-15T08:32:16.456Z,37.75
2023-05-15T08:35:02.281Z,34.53
2023-05-15T08:37:48.235Z,39.78
2023-05-15T08:40:39.003Z,49.53
2023-05-15T08:43:27.426Z,27.52
2023-05-15T08:46:13.584Z,35.17
2023-05-15T08:49:03.628Z,49.03
2023-05-15T08:51:49.677Z,47.00
2023-05-15T08:54:36.392Z,42.03
2023-05-15T08:57:22.847Z,50.33
2023-05-15T09:00:09.522Z,41.47
2023-05-15T09:02:55.378Z,29.67
2023-05-15T09:05:41.659Z,31.48
2023-05-15T09:08:29.135Z,40.45
2023-05-15T09:11:16.003Z,41.13
2023-05-15T09:14:01.857Z,33.75
2023-05-15T09:16:51.111Z,34.65
2023-05-15T09:19:39.199Z,35.80
2023-05-15T09:22:26.107Z,30.55
2023-05-15T09:25:13.401Z,51.70
2023-05-15T09:28:00.048Z,58.72
2023-05-15T09:30:46.306Z,42.50
2023-05-15T09:33:39.129Z,35.45
2023-05-15T09:36:26.411Z,36.00
2023-05-15T09:39:12.471Z,36.72
2023-05-15T09:42:08.682Z,33.95
2023-05-15T09:44:54.173Z,44.08
2023-05-15T09:47:40.237Z,27.80
2023-05-15T09:50:37.606Z,35.80
2023-05-15T09:53:24.360Z,33.65
2023-05-15T09:56:14.219Z,38.63
2023-05-15T09:59:01.022Z,35.00
2023-05-15T10:01:47.329Z,30.77
2023-05-15T10:04:36.913Z,29.10
2023-05-15T10:07:38.570Z,30.10
2023-05-15T10:10:26.326Z,44.72
2023-05-15T10:13:12.515Z,35.20
2023-05-15T10:15:59.256Z,25.83
2023-05-15T10:18:45.807Z,34.10
2023-05-15T10:21:34.688Z,43.85
2023-05-15T10:24:21.559Z,36.00
2023-05-15T10:27:09.598Z,57.35
2023-05-15T10:29:59.492Z,28.15
2023-05-15T10:32:52.429Z,29.65
2023-05-15T10:35:42.811Z,36.92
2023-05-15T10:38:31.892Z,33.92
2023-05-15T10:41:18.336Z,36.63
2023-05-15T10:44:04.511Z,27.05
2023-05-15T10:46:50.732Z,28.13
2023-05-15T10:49:36.848Z,31.08
2023-05-15T10:52:22.995Z,52.92
2023-05-15T10:55:13.474Z,36.15
2023-05-15T10:57:59.752Z,39.58
2023-05-15T11:00:47.977Z,37.83
2023-05-15T11:03:47.894Z,36.92
2023-05-15T11:06:45.485Z,26.30
2023-05-15T11:09:36.203Z,32.42
2023-05-15T11:12:23.568Z,34.15
2023-05-15T11:15:09.387Z,41.13
2023-05-15T11:18:28.661Z,30.02
2023-05-15T11:21:16.613Z,37.58
2023-05-15T11:24:15.079Z,30.67
2023-05-15T11:27:38.949Z,37.78
2023-05-15T11:30:41.518Z,39.58
2023-05-15T11:33:33.522Z,50.47
2023-05-15T11:36:24.405Z,80.53
2023-05-15T11:39:11.990Z,42.38
2023-05-15T11:42:11.450Z,36.38
2023-05-15T11:44:57.553Z,45.35
2023-05-15T11:47:45.441Z,33.80
2023-05-15T11:50:33.676Z,32.38
2023-05-15T11:53:20.998Z,44.25
2023-05-15T11:56:07.432Z,137.13
2023-05-15T11:58:58.731Z,65.50
2023-05-15T12:01:48.500Z,31.40
2023-05-15T12:04:34.962Z,32.65
2023-05-15T12:07:20.818Z,25.67
2023-05-15T12:10:07.702Z,25.52
2023-05-15T12:12:53.553Z,24.15
2023-05-15T12:15:43.166Z,23.08
2023-05-15T12:18:31.944Z,21.17
2023-05-15T12:21:18.057Z,26.52
2023-05-15T12:24:08.138Z,27.80
2023-05-15T12:26:56.627Z,25.48
2023-05-15T12:29:43.943Z,34.90
2023-05-15T12:32:32.951Z,29.45
2023-05-15T12:35:19.293Z,38.42
2023-05-15T12:38:05.905Z,31.35
2023-05-15T12:57:14.486Z,31.25
2023-05-15T13:00:00.658Z,40.30
2023-05-15T13:02:48.843Z,30.25
2023-05-15T13:05:36.654Z,31.40
2023-05-15T13:08:22.880Z,31.48
2023-05-15T13:11:14.169Z,32.67
2023-05-15T13:14:00.720Z,43.08
2023-05-15T13:16:47.192Z,37.90
2023-05-15T13:19:33.288Z,43.28
2023-05-15T13:22:18.961Z,46.45
2023-05-15T13:25:05.407Z,39.45
2023-05-15T13:27:51.672Z,39.90
2023-05-15T13:30:41.548Z,46.20
2023-05-15T13:33:27.614Z,35.95
2023-05-15T13:36:19.602Z,41.22
2023-05-15T13:39:06.591Z,51.92
2023-05-15T13:41:52.525Z,44.15
2023-05-15T13:46:09.071Z,37.13
2023-05-15T13:48:55.259Z,34.25
2023-05-15T13:51:41.242Z,28.30
2023-05-15T13:54:26.953Z,32.47
2023-05-15T13:57:13.145Z,33.67
2023-05-15T14:00:31.228Z,31.55
2023-05-15T14:13:01.247Z,46.85
2023-05-15T14:15:48.076Z,45.03
2023-05-15T14:18:36.864Z,57.65
2023-05-15T14:21:23.250Z,59.22
2023-05-15T14:24:09.118Z,56.95
2023-05-15T14:26:55.233Z,48.90
2023-05-15T14:29:41.559Z,36.08
2023-05-15T14:32:27.700Z,38.70
2023-05-15T14:35:13.554Z,37.38
2023-05-15T14:37:59.845Z,43.42
2023-05-15T14:40:46.010Z,39.10
2023-05-15T14:43:31.863Z,30.50
2023-05-15T14:46:18.880Z,32.35
2023-05-15T14:49:05.475Z,30.40
2023-05-15T14:51:51.316Z,26.48
2023-05-15T14:56:52.536Z,29.35
2023-05-15T14:59:38.349Z,33.85
2023-05-15T15:02:24.220Z,41.33
2023-05-15T15:05:10.292Z,44.28
2023-05-15T15:08:05.886Z,83.80
2023-05-15T15:10:52.290Z,29.67
2023-05-15T15:13:38.541Z,27.98
2023-05-15T15:16:27.225Z,29.42
2023-05-15T15:19:13.753Z,28.92
2023-05-15T15:21:59.598Z,71.80
2023-05-15T15:24:45.694Z,56.25
2023-05-15T15:27:37.100Z,45.97
2023-05-15T15:30:25.268Z,21.50
2023-05-15T15:33:11.491Z,31.45
2023-05-15T15:35:57.571Z,28.17
2023-05-15T15:38:43.828Z,23.15
2023-05-15T15:41:33.124Z,27.58
2023-05-15T15:44:19.188Z,24.38
2023-05-15T15:47:05.148Z,43.45
2023-05-15T15:49:51.523Z,42.97
2023-05-15T15:52:37.502Z,69.80
2023-05-15T15:55:24.661Z,25.48
2023-05-15T15:58:10.579Z,21.50
2023-05-15T16:00:58.039Z,31.08
2023-05-15T16:03:44.001Z,28.58
2023-05-15T16:06:30.155Z,38.92
2023-05-15T16:09:19.146Z,30.13
2023-05-15T16:12:05.311Z,36.22
2023-05-15T16:14:51.398Z,25.35
2023-05-15T16:17:38.638Z,42.10
2023-05-15T16:20:25.030Z,43.90
2023-05-15T16:23:15.021Z,33.22
2023-05-15T16:26:02.436Z,36.13
2023-05-15T16:28:48.440Z,33.85
2023-05-15T16:31:34.530Z,29.75
2023-05-15T16:34:20.882Z,36.85
2023-05-15T16:37:06.875Z,28.35
2023-05-15T16:39:52.969Z,26.92
2023-05-15T16:42:39.709Z,26.65
2023-05-15T16:45:26.190Z,27.40
2023-05-15T16:48:12.459Z,35.67
2023-05-15T16:50:58.436Z,24.52
2023-05-15T16:53:44.765Z,29.92
2023-05-15T16:56:42.436Z,33.60
2023-05-15T16:59:34.662Z,40.55
2023-05-15T17:02:24.150Z,45.80
2023-05-15T17:05:10.981Z,26.40
2023-05-15T17:07:56.977Z,27.30
2023-05-15T17:10:42.996Z,24.92
2023-05-15T17:13:29.016Z,30.17
2023-05-15T17:16:14.952Z,35.28
2023-05-15T17:19:01.297Z,26.00
2023-05-15T17:21:47.065Z,21.08
2023-05-15T17:24:54.445Z,37.53
2023-05-15T17:27:41.656Z,28.75
2023-05-15T17:30:27.744Z,22.95
2023-05-15T17:33:13.706Z,29.80
2023-05-15T17:35:59.572Z,19.25
2023-05-15T17:38:45.199Z,28.25
2023-05-15T17:41:31.202Z,23.27
2023-05-15T17:44:17.355Z,31.77
2023-05-15T17:47:03.274Z,25.17
2023-05-15T17:49:49.636Z,28.55
2023-05-15T17:52:37.249Z,35.92
2023-05-15T17:55:24.311Z,28.50
2023-05-15T17:58:10.450Z,28.02
2023-05-15T18:00:57.436Z,22.75
2023-05-15T18:03:43.380Z,26.98
2023-05-15T18:06:29.289Z,29.25
2023-05-15T18:09:15.269Z,42.90
2023-05-15T18:12:01.384Z,45.53
2023-05-15T18:14:47.504Z,40.80
2023-05-15T18:17:33.303Z,29.70
2023-05-15T18:20:19.153Z,24.02
2023-05-15T18:23:04.921Z,29.50
2023-05-15T18:25:51.078Z,28.88
2023-05-15T18:28:37.303Z,20.27
2023-05-15T18:31:23.538Z,27.27
2023-05-15T18:34:09.744Z,44.47
2023-05-15T18:36:56.038Z,67.25
2023-05-15T18:39:44.416Z,83.97
2023-05-15T18:42:31.508Z,164.80
2023-05-15T18:45:17.654Z,43.55
2023-05-15T18:48:04.036Z,40.10
2023-05-15T18:51:16.265Z,37.65
2023-05-15T18:54:02.437Z,29.92
2023-05-15T18:56:48.477Z,32.63
2023-05-15T18:59:34.915Z,28.42
2023-05-15T19:02:30.646Z,22.25
2023-05-15T19:05:16.957Z,30.75
2023-05-15T19:08:04.041Z,35.72
2023-05-15T19:10:50.844Z,39.60
2023-05-15T19:13:36.850Z,30.55
2023-05-15T19:16:26.913Z,39.80
2023-05-15T19:19:13.413Z,43.20
2023-05-15T19:21:59.156Z,118.68
2023-05-15T19:24:45.075Z,69.28
2023-05-15T19:27:32.086Z,65.22
2023-05-15T19:30:18.372Z,41.50
2023-05-15T19:33:04.391Z,27.15
2023-05-15T19:35:50.950Z,34.90
2023-05-15T19:38:37.854Z,99.80
2023-05-15T19:41:24.240Z,90.20
2023-05-15T19:44:10.345Z,66.85
2023-05-15T19:46:56.538Z,65.13
2023-05-15T19:49:43.559Z,61.33
2023-05-15T19:52:29.913Z,106.65
2023-05-15T19:55:15.951Z,160.02
2023-05-15T19:58:01.934Z,115.35
2023-05-15T20:00:48.489Z,64.32
2023-05-15T20:03:35.126Z,39.03
2023-05-15T20:06:21.326Z,42.25
2023-05-15T20:09:07.409Z,33.25
2023-05-15T20:11:53.433Z,26.98
2023-05-15T20:14:39.381Z,49.50
2023-05-15T20:17:25.371Z,63.67
2023-05-15T20:20:12.321Z,38.90
2023-05-15T20:22:58.512Z,39.13
2023-05-15T20:25:44.536Z,16.88
2023-05-15T20:28:30.780Z,22.90
2023-05-15T20:31:16.649Z,17.63
2023-05-15T20:34:08.502Z,18.85
2023-05-15T20:36:54.992Z,24.75
2023-05-15T20:39:40.907Z,31.30
2023-05-15T20:42:29.281Z,35.50
2023-05-15T20:45:15.364Z,54.10
2023-05-15T20:48:01.633Z,30.75
2023-05-15T20:50:53.196Z,62.22
2023-05-15T20:53:39.008Z,107.43
2023-05-15T20:56:25.824Z,94.88
2023-05-15T20:59:11.734Z,111.40
2023-05-15T21:01:57.543Z,89.47
2023-05-15T21:04:44.142Z,56.53
2023-05-15T21:07:30.045Z,50.53
2023-05-15T21:10:15.990Z,125.85
2023-05-15T21:13:02.199Z,140.65
2023-05-15T21:15:48.108Z,151.70
2023-05-15T21:18:34.359Z,89.95
2023-05-15T21:21:20.739Z,62.78
2023-05-15T21:24:07.250Z,51.17
2023-05-15T21:26:53.458Z,38.30
2023-05-15T21:29:39.615Z,41.30
2023-05-15T21:32:25.662Z,36.88
2023-05-15T21:35:11.913Z,29.85
2023-05-15T21:37:58.023Z,31.90
2023-05-15T21:40:57.934Z,27.38
2023-05-15T21:43:43.912Z,32.90
2023-05-15T21:46:29.639Z,28.50
2023-05-15T21:49:48.095Z,33.50
2023-05-15T21:53:45.439Z,42.00
2023-05-15T21:56:31.960Z,26.50
2023-05-15T21:59:17.854Z,33.53
2023-05-15T22:02:03.993Z,25.50
2023-05-15T22:04:49.800Z,36.13
2023-05-15T22:07:35.662Z,59.25
2023-05-15T22:10:22.469Z,59.22
2023-05-15T22:13:09.197Z,41.33
2023-05-15T22:15:55.175Z,40.45
2023-05-15T22:18:45.047Z,52.53
2023-05-15T22:21:32.109Z,46.60
2023-05-15T22:24:18.011Z,36.15
2023-05-15T22:27:04.037Z,73.70
2023-05-15T22:29:50.014Z,58.25
2023-05-15T22:32:36.157Z,44.75
2023-05-15T22:35:22.293Z,43.03
2023-05-15T22:38:08.321Z,156.48
2023-05-15T22:40:54.116Z,65.53
2023-05-15T22:43:40.096Z,67.72
2023-05-15T22:46:25.785Z,42.53
2023-05-15T22:49:24.373Z,36.80
2023-05-15T22:52:12.948Z,79.90
2023-05-15T22:54:59.965Z,36.75
2023-05-15T22:57:45.827Z,53.63
2023-05-15T23:00:32.373Z,66.25
2023-05-15T23:03:18.578Z,73.38
2023-05-15T23:06:05.004Z,134.75
2023-05-15T23:08:51.409Z,84.25
2023-05-15T23:11:37.957Z,52.53
2023-05-15T23:14:24.403Z,56.40
2023-05-15T23:17:10.497Z,123.75
2023-05-15T23:19:56.548Z,128.63
2023-05-15T23:22:42.412Z,48.97
2023-05-15T23:25:28.412Z,38.10
2023-05-15T23:28:14.312Z,26.20
2023-05-15T23:31:00.072Z,30.70
2023-05-15T23:33:45.713Z,35.97
2023-05-15T23:36:31.454Z,35.33
2023-05-15T23:39:17.250Z,29.08
2023-05-15T23:42:03.383Z,25.63
2023-05-15T23:44:50.066Z,25.42
2023-05-15T23:47:36.603Z,23.38
2023-05-15T23:50:23.201Z,21.88
2023-05-15T23:53:09.304Z,19.58
2023-05-15T23:55:55.500Z,27.52
2023-05-15T23:58:41.773Z,28.95
